sensor_id;sensor_type;location;lat;lon;timestamp;temperature;humidity
15450;DHT22;7826;49.784;9.934;2023-06-14T00:02:17;14.90;80.80
15450;DHT22;7826;49.784;9.934;2023-06-14T00:04:44;14.90;80.70
15450;DHT22;7826;49.784;9.934;2023-06-14T00:07:11;15.00;79.60
15450;DHT22;7826;49.784;9.934;2023-06-14T00:09:39;14.90;80.70
15450;DHT22;7826;49.784;9.934;2023-06-14T00:12:06;14.90;81.30
15450;DHT22;7826;49.784;9.934;2023-06-14T00:14:33;14.90;82.70
15450;DHT22;7826;49.784;9.934;2023-06-14T00:16:59;14.70;84.00
15450;DHT22;7826;49.784;9.934;2023-06-14T00:19:27;14.80;82.00
15450;DHT22;7826;49.784;9.934;2023-06-14T00:21:54;14.70;82.20
15450;DHT22;7826;49.784;9.934;2023-06-14T00:24:20;14.80;82.50
15450;DHT22;7826;49.784;9.934;2023-06-14T00:26:47;14.70;83.90
15450;DHT22;7826;49.784;9.934;2023-06-14T00:29:13;14.70;83.10
15450;DHT22;7826;49.784;9.934;2023-06-14T00:31:40;14.60;85.00
15450;DHT22;7826;49.784;9.934;2023-06-14T00:34:07;14.60;84.90
15450;DHT22;7826;49.784;9.934;2023-06-14T00:36:33;14.60;85.70
15450;DHT22;7826;49.784;9.934;2023-06-14T00:39:00;14.50;85.10
15450;DHT22;7826;49.784;9.934;2023-06-14T00:41:26;14.50;83.80
15450;DHT22;7826;49.784;9.934;2023-06-14T00:43:53;14.40;86.80
15450;DHT22;7826;49.784;9.934;2023-06-14T00:46:22;14.40;86.50
15450;DHT22;7826;49.784;9.934;2023-06-14T00:48:49;14.40;85.00
15450;DHT22;7826;49.784;9.934;2023-06-14T00:51:16;14.50;85.80
15450;DHT22;7826;49.784;9.934;2023-06-14T00:53:44;14.40;87.80
15450;DHT22;7826;49.784;9.934;2023-06-14T00:56:14;14.40;87.80
15450;DHT22;7826;49.784;9.934;2023-06-14T00:58:41;14.40;86.70
15450;DHT22;7826;49.784;9.934;2023-06-14T01:01:08;14.10;90.40
15450;DHT22;7826;49.784;9.934;2023-06-14T01:03:34;14.10;89.00
15450;DHT22;7826;49.784;9.934;2023-06-14T01:12:04;14.20;89.10
15450;DHT22;7826;49.784;9.934;2023-06-14T01:14:34;14.10;90.20
15450;DHT22;7826;49.784;9.934;2023-06-14T01:17:02;14.10;90.70
15450;DHT22;7826;49.784;9.934;2023-06-14T01:19:28;14.20;89.10
15450;DHT22;7826;49.784;9.934;2023-06-14T01:21:56;14.30;90.40
15450;DHT22;7826;49.784;9.934;2023-06-14T01:24:22;14.20;90.10
15450;DHT22;7826;49.784;9.934;2023-06-14T01:26:53;14.10;91.20
15450;DHT22;7826;49.784;9.934;2023-06-14T01:29:23;14.00;91.80
15450;DHT22;7826;49.784;9.934;2023-06-14T01:31:53;14.00;91.70
15450;DHT22;7826;49.784;9.934;2023-06-14T01:34:20;14.10;91.40
15450;DHT22;7826;49.784;9.934;2023-06-14T01:36:47;14.10;92.50
15450;DHT22;7826;49.784;9.934;2023-06-14T01:39:15;14.20;91.20
15450;DHT22;7826;49.784;9.934;2023-06-14T01:41:43;14.20;90.70
15450;DHT22;7826;49.784;9.934;2023-06-14T01:44:10;14.30;91.50
15450;DHT22;7826;49.784;9.934;2023-06-14T01:46:37;14.30;91.60
15450;DHT22;7826;49.784;9.934;2023-06-14T01:49:04;14.20;91.90
15450;DHT22;7826;49.784;9.934;2023-06-14T01:51:31;14.10;92.90
15450;DHT22;7826;49.784;9.934;2023-06-14T01:53:57;14.00;93.60
15450;DHT22;7826;49.784;9.934;2023-06-14T01:56:24;14.00;93.80
15450;DHT22;7826;49.784;9.934;2023-06-14T01:58:52;13.90;94.40
15450;DHT22;7826;49.784;9.934;2023-06-14T02:01:20;13.90;94.60
15450;DHT22;7826;49.784;9.934;2023-06-14T02:03:47;13.90;95.50
15450;DHT22;7826;49.784;9.934;2023-06-14T02:06:15;13.90;95.90
15450;DHT22;7826;49.784;9.934;2023-06-14T02:08:44;13.90;95.60
15450;DHT22;7826;49.784;9.934;2023-06-14T02:11:11;13.70;96.40
15450;DHT22;7826;49.784;9.934;2023-06-14T02:13:37;13.80;97.20
15450;DHT22;7826;49.784;9.934;2023-06-14T02:16:04;13.80;96.70
15450;DHT22;7826;49.784;9.934;2023-06-14T02:18:31;13.80;96.40
15450;DHT22;7826;49.784;9.934;2023-06-14T02:20:58;13.80;95.50
15450;DHT22;7826;49.784;9.934;2023-06-14T02:23:24;13.90;96.00
15450;DHT22;7826;49.784;9.934;2023-06-14T02:25:51;13.90;96.50
15450;DHT22;7826;49.784;9.934;2023-06-14T02:28:17;14.00;96.10
15450;DHT22;7826;49.784;9.934;2023-06-14T02:30:44;14.00;97.90
15450;DHT22;7826;49.784;9.934;2023-06-14T02:33:11;14.00;96.30
15450;DHT22;7826;49.784;9.934;2023-06-14T02:35:39;14.00;96.90
15450;DHT22;7826;49.784;9.934;2023-06-14T02:38:05;14.00;97.20
15450;DHT22;7826;49.784;9.934;2023-06-14T02:40:32;13.90;98.70
15450;DHT22;7826;49.784;9.934;2023-06-14T02:42:58;13.90;98.10
15450;DHT22;7826;49.784;9.934;2023-06-14T02:45:25;13.80;99.90
15450;DHT22;7826;49.784;9.934;2023-06-14T02:47:51;13.70;99.30
15450;DHT22;7826;49.784;9.934;2023-06-14T02:50:18;13.60;99.90
15450;DHT22;7826;49.784;9.934;2023-06-14T02:52:45;13.70;99.90
15450;DHT22;7826;49.784;9.934;2023-06-14T02:55:11;13.70;99.90
15450;DHT22;7826;49.784;9.934;2023-06-14T02:57:38;13.70;99.90
15450;DHT22;7826;49.784;9.934;2023-06-14T03:00:05;13.70;99.90
15450;DHT22;7826;49.784;9.934;2023-06-14T03:02:36;13.50;99.90
15450;DHT22;7826;49.784;9.934;2023-06-14T03:05:02;13.30;99.90
15450;DHT22;7826;49.784;9.934;2023-06-14T03:07:29;13.40;99.90
15450;DHT22;7826;49.784;9.934;2023-06-14T03:09:56;13.50;99.90
15450;DHT22;7826;49.784;9.934;2023-06-14T03:12:22;13.50;99.90
15450;DHT22;7826;49.784;9.934;2023-06-14T03:14:50;13.50;99.90
15450;DHT22;7826;49.784;9.934;2023-06-14T03:17:17;13.50;99.90
15450;DHT22;7826;49.784;9.934;2023-06-14T03:19:45;13.70;99.90
15450;DHT22;7826;49.784;9.934;2023-06-14T03:22:12;13.60;99.90
15450;DHT22;7826;49.784;9.934;2023-06-14T03:24:39;13.50;99.90
15450;DHT22;7826;49.784;9.934;2023-06-14T03:27:05;13.50;99.90
15450;DHT22;7826;49.784;9.934;2023-06-14T03:29:32;13.50;99.90
15450;DHT22;7826;49.784;9.934;2023-06-14T03:32:00;13.60;99.90
15450;DHT22;7826;49.784;9.934;2023-06-14T03:34:27;13.60;99.90
15450;DHT22;7826;49.784;9.934;2023-06-14T03:36:54;13.60;99.90
15450;DHT22;7826;49.784;9.934;2023-06-14T03:39:20;13.50;99.90
15450;DHT22;7826;49.784;9.934;2023-06-14T03:41:47;13.40;99.90
15450;DHT22;7826;49.784;9.934;2023-06-14T03:44:16;13.40;99.90
15450;DHT22;7826;49.784;9.934;2023-06-14T03:46:47;13.40;99.90
15450;DHT22;7826;49.784;9.934;2023-06-14T03:49:14;13.40;99.90
15450;DHT22;7826;49.784;9.934;2023-06-14T03:51:42;13.40;99.90
15450;DHT22;7826;49.784;9.934;2023-06-14T03:54:09;13.40;99.90
15450;DHT22;7826;49.784;9.934;2023-06-14T03:56:35;13.20;99.90
15450;DHT22;7826;49.784;9.934;2023-06-14T03:59:02;13.40;99.90
15450;DHT22;7826;49.784;9.934;2023-06-14T04:01:29;13.40;99.90
15450;DHT22;7826;49.784;9.934;2023-06-14T04:03:56;13.50;99.90
15450;DHT22;7826;49.784;9.934;2023-06-14T04:06:24;13.40;99.90
15450;DHT22;7826;49.784;9.934;2023-06-14T04:08:59;13.40;99.90
15450;DHT22;7826;49.784;9.934;2023-06-14T04:11:30;13.60;99.90
15450;DHT22;7826;49.784;9.934;2023-06-14T04:13:58;13.60;99.90
15450;DHT22;7826;49.784;9.934;2023-06-14T04:16:25;13.60;99.90
15450;DHT22;7826;49.784;9.934;2023-06-14T04:18:53;13.60;99.90
15450;DHT22;7826;49.784;9.934;2023-06-14T04:21:21;13.60;99.90
15450;DHT22;7826;49.784;9.934;2023-06-14T04:23:47;13.60;99.90
15450;DHT22;7826;49.784;9.934;2023-06-14T04:26:14;13.60;99.90
15450;DHT22;7826;49.784;9.934;2023-06-14T04:28:40;13.80;99.90
15450;DHT22;7826;49.784;9.934;2023-06-14T04:31:07;13.70;99.90
15450;DHT22;7826;49.784;9.934;2023-06-14T04:33:37;13.70;99.90
15450;DHT22;7826;49.784;9.934;2023-06-14T04:36:12;13.40;99.90
15450;DHT22;7826;49.784;9.934;2023-06-14T04:38:39;13.50;99.90
15450;DHT22;7826;49.784;9.934;2023-06-14T04:41:07;13.60;99.90
15450;DHT22;7826;49.784;9.934;2023-06-14T04:43:38;13.70;99.90
15450;DHT22;7826;49.784;9.934;2023-06-14T04:46:06;13.80;99.90
15450;DHT22;7826;49.784;9.934;2023-06-14T04:48:39;13.80;99.90
15450;DHT22;7826;49.784;9.934;2023-06-14T04:51:10;13.80;99.90
15450;DHT22;7826;49.784;9.934;2023-06-14T04:53:37;13.90;99.90
15450;DHT22;7826;49.784;9.934;2023-06-14T04:56:04;14.00;99.90
15450;DHT22;7826;49.784;9.934;2023-06-14T04:58:30;14.10;99.90
15450;DHT22;7826;49.784;9.934;2023-06-14T05:00:58;14.10;99.90
15450;DHT22;7826;49.784;9.934;2023-06-14T05:03:25;14.20;99.90
15450;DHT22;7826;49.784;9.934;2023-06-14T05:05:53;14.20;99.90
15450;DHT22;7826;49.784;9.934;2023-06-14T05:08:21;14.20;99.90
15450;DHT22;7826;49.784;9.934;2023-06-14T05:10:50;14.30;99.90
15450;DHT22;7826;49.784;9.934;2023-06-14T05:13:17;14.30;99.90
15450;DHT22;7826;49.784;9.934;2023-06-14T05:15:43;14.40;99.90
15450;DHT22;7826;49.784;9.934;2023-06-14T05:18:10;14.50;99.90
15450;DHT22;7826;49.784;9.934;2023-06-14T05:20:37;14.60;99.90
15450;DHT22;7826;49.784;9.934;2023-06-14T05:23:03;14.70;99.90
15450;DHT22;7826;49.784;9.934;2023-06-14T05:25:30;14.70;99.90
15450;DHT22;7826;49.784;9.934;2023-06-14T05:27:56;14.80;99.90
15450;DHT22;7826;49.784;9.934;2023-06-14T05:30:23;14.90;99.90
15450;DHT22;7826;49.784;9.934;2023-06-14T05:32:49;15.00;99.90
15450;DHT22;7826;49.784;9.934;2023-06-14T05:35:17;15.10;99.90
15450;DHT22;7826;49.784;9.934;2023-06-14T05:37:43;15.20;99.90
15450;DHT22;7826;49.784;9.934;2023-06-14T05:40:10;15.20;99.90
15450;DHT22;7826;49.784;9.934;2023-06-14T05:42:37;15.30;99.90
15450;DHT22;7826;49.784;9.934;2023-06-14T05:45:03;15.40;99.90
15450;DHT22;7826;49.784;9.934;2023-06-14T05:47:30;15.50;99.90
15450;DHT22;7826;49.784;9.934;2023-06-14T05:49:57;15.60;99.90
15450;DHT22;7826;49.784;9.934;2023-06-14T05:52:23;15.50;99.90
15450;DHT22;7826;49.784;9.934;2023-06-14T05:54:50;15.60;99.90
15450;DHT22;7826;49.784;9.934;2023-06-14T05:57:16;15.70;99.90
15450;DHT22;7826;49.784;9.934;2023-06-14T05:59:43;15.60;99.90
15450;DHT22;7826;49.784;9.934;2023-06-14T06:02:09;15.70;99.90
15450;DHT22;7826;49.784;9.934;2023-06-14T06:04:36;15.70;99.90
15450;DHT22;7826;49.784;9.934;2023-06-14T06:07:02;15.70;99.90
15450;DHT22;7826;49.784;9.934;2023-06-14T06:09:30;15.90;99.90
15450;DHT22;7826;49.784;9.934;2023-06-14T06:11:56;16.00;99.90
15450;DHT22;7826;49.784;9.934;2023-06-14T06:14:22;16.10;99.90
15450;DHT22;7826;49.784;9.934;2023-06-14T06:16:49;16.30;99.90
15450;DHT22;7826;49.784;9.934;2023-06-14T06:19:15;16.40;99.90
15450;DHT22;7826;49.784;9.934;2023-06-14T06:21:42;16.30;99.90
15450;DHT22;7826;49.784;9.934;2023-06-14T06:24:08;16.30;99.90
15450;DHT22;7826;49.784;9.934;2023-06-14T06:26:35;16.50;99.90
15450;DHT22;7826;49.784;9.934;2023-06-14T06:29:02;16.40;99.90
15450;DHT22;7826;49.784;9.934;2023-06-14T06:31:28;16.40;99.90
15450;DHT22;7826;49.784;9.934;2023-06-14T06:33:55;16.40;99.90
15450;DHT22;7826;49.784;9.934;2023-06-14T06:36:22;16.60;99.90
15450;DHT22;7826;49.784;9.934;2023-06-14T06:38:48;16.70;99.90
15450;DHT22;7826;49.784;9.934;2023-06-14T06:41:15;16.80;99.90
15450;DHT22;7826;49.784;9.934;2023-06-14T06:43:42;16.80;99.90
15450;DHT22;7826;49.784;9.934;2023-06-14T06:46:08;16.90;99.90
15450;DHT22;7826;49.784;9.934;2023-06-14T06:48:35;16.80;99.90
15450;DHT22;7826;49.784;9.934;2023-06-14T06:51:01;16.80;99.90
15450;DHT22;7826;49.784;9.934;2023-06-14T06:53:28;16.90;99.90
15450;DHT22;7826;49.784;9.934;2023-06-14T06:55:54;16.90;99.90
15450;DHT22;7826;49.784;9.934;2023-06-14T06:58:21;16.90;99.90
15450;DHT22;7826;49.784;9.934;2023-06-14T07:00:48;16.90;99.90
15450;DHT22;7826;49.784;9.934;2023-06-14T07:03:15;17.00;99.90
15450;DHT22;7826;49.784;9.934;2023-06-14T07:05:41;16.90;99.90
15450;DHT22;7826;49.784;9.934;2023-06-14T07:08:08;17.00;99.90
15450;DHT22;7826;49.784;9.934;2023-06-14T07:10:34;17.10;99.90
15450;DHT22;7826;49.784;9.934;2023-06-14T07:13:01;17.00;99.90
15450;DHT22;7826;49.784;9.934;2023-06-14T07:15:27;17.00;99.90
15450;DHT22;7826;49.784;9.934;2023-06-14T07:17:54;16.90;99.90
15450;DHT22;7826;49.784;9.934;2023-06-14T07:20:23;16.90;99.90
15450;DHT22;7826;49.784;9.934;2023-06-14T07:22:51;16.80;99.90
15450;DHT22;7826;49.784;9.934;2023-06-14T07:25:17;16.90;99.90
15450;DHT22;7826;49.784;9.934;2023-06-14T07:27:46;16.90;99.90
15450;DHT22;7826;49.784;9.934;2023-06-14T07:30:13;17.00;99.90
15450;DHT22;7826;49.784;9.934;2023-06-14T07:32:39;17.10;99.90
15450;DHT22;7826;49.784;9.934;2023-06-14T07:35:06;17.30;99.90
15450;DHT22;7826;49.784;9.934;2023-06-14T07:37:32;17.40;99.90
15450;DHT22;7826;49.784;9.934;2023-06-14T07:39:59;17.60;99.80
15450;DHT22;7826;49.784;9.934;2023-06-14T07:42:25;17.60;99.90
15450;DHT22;7826;49.784;9.934;2023-06-14T07:44:52;17.60;99.90
15450;DHT22;7826;49.784;9.934;2023-06-14T07:47:20;17.60;99.90
15450;DHT22;7826;49.784;9.934;2023-06-14T07:49:46;17.60;99.90
15450;DHT22;7826;49.784;9.934;2023-06-14T07:52:13;17.70;99.70
15450;DHT22;7826;49.784;9.934;2023-06-14T07:54:40;18.10;99.30
15450;DHT22;7826;49.784;9.934;2023-06-14T07:57:07;18.30;98.90
15450;DHT22;7826;49.784;9.934;2023-06-14T07:59:33;18.80;98.00
15450;DHT22;7826;49.784;9.934;2023-06-14T08:02:00;18.70;97.40
15450;DHT22;7826;49.784;9.934;2023-06-14T08:04:27;19.00;97.50
15450;DHT22;7826;49.784;9.934;2023-06-14T08:06:53;19.20;96.70
15450;DHT22;7826;49.784;9.934;2023-06-14T08:09:20;19.50;96.60
15450;DHT22;7826;49.784;9.934;2023-06-14T08:11:46;19.80;95.70
15450;DHT22;7826;49.784;9.934;2023-06-14T08:14:13;20.30;95.10
15450;DHT22;7826;49.784;9.934;2023-06-14T08:16:39;20.70;93.80
15450;DHT22;7826;49.784;9.934;2023-06-14T08:19:06;20.80;92.70
15450;DHT22;7826;49.784;9.934;2023-06-14T08:21:33;20.80;91.80
15450;DHT22;7826;49.784;9.934;2023-06-14T08:23:59;20.40;92.60
15450;DHT22;7826;49.784;9.934;2023-06-14T08:26:26;19.80;93.60
15450;DHT22;7826;49.784;9.934;2023-06-14T08:28:56;19.60;94.00
15450;DHT22;7826;49.784;9.934;2023-06-14T08:31:23;19.60;93.60
15450;DHT22;7826;49.784;9.934;2023-06-14T08:33:51;19.60;93.80
15450;DHT22;7826;49.784;9.934;2023-06-14T08:36:18;19.70;93.60
15450;DHT22;7826;49.784;9.934;2023-06-14T08:38:44;19.70;93.40
15450;DHT22;7826;49.784;9.934;2023-06-14T08:41:12;19.70;93.60
15450;DHT22;7826;49.784;9.934;2023-06-14T08:43:39;19.50;94.10
15450;DHT22;7826;49.784;9.934;2023-06-14T08:46:06;19.70;93.80
15450;DHT22;7826;49.784;9.934;2023-06-14T08:48:37;19.70;93.40
15450;DHT22;7826;49.784;9.934;2023-06-14T08:51:04;19.70;93.00
15450;DHT22;7826;49.784;9.934;2023-06-14T08:53:31;19.70;92.80
15450;DHT22;7826;49.784;9.934;2023-06-14T08:56:00;19.80;92.50
15450;DHT22;7826;49.784;9.934;2023-06-14T08:58:31;19.80;92.90
15450;DHT22;7826;49.784;9.934;2023-06-14T09:01:01;19.70;92.10
15450;DHT22;7826;49.784;9.934;2023-06-14T09:03:28;19.90;92.50
15450;DHT22;7826;49.784;9.934;2023-06-14T09:05:57;19.80;92.40
15450;DHT22;7826;49.784;9.934;2023-06-14T09:08:26;19.90;92.20
15450;DHT22;7826;49.784;9.934;2023-06-14T09:10:57;20.00;91.40
15450;DHT22;7826;49.784;9.934;2023-06-14T09:13:24;20.00;91.80
15450;DHT22;7826;49.784;9.934;2023-06-14T09:15:50;20.10;92.00
15450;DHT22;7826;49.784;9.934;2023-06-14T09:18:17;20.20;91.30
15450;DHT22;7826;49.784;9.934;2023-06-14T09:20:44;20.40;90.80
15450;DHT22;7826;49.784;9.934;2023-06-14T09:23:10;19.90;91.90
15450;DHT22;7826;49.784;9.934;2023-06-14T09:25:45;20.20;91.20
15450;DHT22;7826;49.784;9.934;2023-06-14T09:28:12;20.40;90.60
15450;DHT22;7826;49.784;9.934;2023-06-14T09:30:38;20.30;90.70
15450;DHT22;7826;49.784;9.934;2023-06-14T09:33:05;20.40;91.10
15450;DHT22;7826;49.784;9.934;2023-06-14T09:35:32;20.60;90.90
15450;DHT22;7826;49.784;9.934;2023-06-14T09:37:59;21.10;90.20
15450;DHT22;7826;49.784;9.934;2023-06-14T09:40:26;21.10;88.60
15450;DHT22;7826;49.784;9.934;2023-06-14T09:42:53;21.30;88.80
15450;DHT22;7826;49.784;9.934;2023-06-14T09:45:20;21.40;87.80
15450;DHT22;7826;49.784;9.934;2023-06-14T09:47:51;21.70;86.30
15450;DHT22;7826;49.784;9.934;2023-06-14T09:50:18;21.80;85.60
15450;DHT22;7826;49.784;9.934;2023-06-14T09:52:46;21.70;82.70
15450;DHT22;7826;49.784;9.934;2023-06-14T09:55:15;21.60;83.70
15450;DHT22;7826;49.784;9.934;2023-06-14T09:57:45;21.60;83.20
15450;DHT22;7826;49.784;9.934;2023-06-14T10:00:15;21.80;84.10
15450;DHT22;7826;49.784;9.934;2023-06-14T10:02:43;21.90;83.10
15450;DHT22;7826;49.784;9.934;2023-06-14T10:05:15;21.50;82.70
15450;DHT22;7826;49.784;9.934;2023-06-14T10:08:19;21.60;81.50
15450;DHT22;7826;49.784;9.934;2023-06-14T10:10:46;21.90;81.30
15450;DHT22;7826;49.784;9.934;2023-06-14T10:13:13;22.00;80.30
15450;DHT22;7826;49.784;9.934;2023-06-14T10:23:48;22.00;78.90
15450;DHT22;7826;49.784;9.934;2023-06-14T10:26:23;22.00;78.60
15450;DHT22;7826;49.784;9.934;2023-06-14T10:31:49;22.10;77.30
15450;DHT22;7826;49.784;9.934;2023-06-14T10:34:26;22.30;76.20
15450;DHT22;7826;49.784;9.934;2023-06-14T10:37:13;22.50;74.90
15450;DHT22;7826;49.784;9.934;2023-06-14T10:39:44;22.60;74.20
15450;DHT22;7826;49.784;9.934;2023-06-14T10:42:14;22.50;75.50
15450;DHT22;7826;49.784;9.934;2023-06-14T10:47:33;22.90;73.70
15450;DHT22;7826;49.784;9.934;2023-06-14T10:52:34;23.80;71.60
15450;DHT22;7826;49.784;9.934;2023-06-14T10:55:15;23.50;68.30
15450;DHT22;7826;49.784;9.934;2023-06-14T10:57:44;23.50;67.20
15450;DHT22;7826;49.784;9.934;2023-06-14T11:00:13;23.20;67.30
15450;DHT22;7826;49.784;9.934;2023-06-14T11:08:42;23.70;65.70
15450;DHT22;7826;49.784;9.934;2023-06-14T11:11:13;24.00;65.20
15450;DHT22;7826;49.784;9.934;2023-06-14T11:13:44;24.30;63.50
15450;DHT22;7826;49.784;9.934;2023-06-14T11:16:15;24.20;63.90
15450;DHT22;7826;49.784;9.934;2023-06-14T11:18:44;24.60;63.90
15450;DHT22;7826;49.784;9.934;2023-06-14T11:21:11;24.00;63.00
15450;DHT22;7826;49.784;9.934;2023-06-14T11:23:37;23.80;64.70
15450;DHT22;7826;49.784;9.934;2023-06-14T11:26:04;23.90;65.30
15450;DHT22;7826;49.784;9.934;2023-06-14T11:31:07;24.20;61.90
15450;DHT22;7826;49.784;9.934;2023-06-14T11:33:34;24.40;60.60
15450;DHT22;7826;49.784;9.934;2023-06-14T11:36:05;24.60;60.70
15450;DHT22;7826;49.784;9.934;2023-06-14T11:38:37;24.80;59.90
15450;DHT22;7826;49.784;9.934;2023-06-14T11:41:03;24.90;58.20
15450;DHT22;7826;49.784;9.934;2023-06-14T11:43:31;24.60;59.50
15450;DHT22;7826;49.784;9.934;2023-06-14T11:45:59;24.40;58.70
15450;DHT22;7826;49.784;9.934;2023-06-14T11:48:37;24.10;58.60
15450;DHT22;7826;49.784;9.934;2023-06-14T11:51:03;24.30;59.20
15450;DHT22;7826;49.784;9.934;2023-06-14T11:53:30;24.70;58.00
15450;DHT22;7826;49.784;9.934;2023-06-14T11:55:57;24.90;58.50
15450;DHT22;7826;49.784;9.934;2023-06-14T11:58:25;24.80;58.50
15450;DHT22;7826;49.784;9.934;2023-06-14T12:00:52;24.90;58.40
15450;DHT22;7826;49.784;9.934;2023-06-14T12:03:26;24.80;57.50
15450;DHT22;7826;49.784;9.934;2023-06-14T12:06:06;24.60;58.10
15450;DHT22;7826;49.784;9.934;2023-06-14T12:08:37;23.90;59.20
15450;DHT22;7826;49.784;9.934;2023-06-14T12:11:10;24.40;58.70
15450;DHT22;7826;49.784;9.934;2023-06-14T12:13:41;24.80;58.20
15450;DHT22;7826;49.784;9.934;2023-06-14T12:16:09;25.20;57.30
15450;DHT22;7826;49.784;9.934;2023-06-14T12:18:36;24.60;56.60
15450;DHT22;7826;49.784;9.934;2023-06-14T12:21:07;24.00;58.00
15450;DHT22;7826;49.784;9.934;2023-06-14T12:23:47;24.40;57.60
15450;DHT22;7826;49.784;9.934;2023-06-14T12:26:18;24.30;57.20
15450;DHT22;7826;49.784;9.934;2023-06-14T12:28:46;24.60;56.80
15450;DHT22;7826;49.784;9.934;2023-06-14T12:31:14;25.10;57.00
15450;DHT22;7826;49.784;9.934;2023-06-14T12:33:42;24.40;57.50
15450;DHT22;7826;49.784;9.934;2023-06-14T12:36:10;24.60;56.40
15450;DHT22;7826;49.784;9.934;2023-06-14T12:38:37;24.20;57.20
15450;DHT22;7826;49.784;9.934;2023-06-14T12:41:04;24.10;57.30
15450;DHT22;7826;49.784;9.934;2023-06-14T12:43:30;24.30;57.90
15450;DHT22;7826;49.784;9.934;2023-06-14T12:45:57;24.60;57.50
15450;DHT22;7826;49.784;9.934;2023-06-14T12:48:23;24.30;58.00
15450;DHT22;7826;49.784;9.934;2023-06-14T12:50:50;24.60;56.60
15450;DHT22;7826;49.784;9.934;2023-06-14T12:53:16;24.60;58.00
15450;DHT22;7826;49.784;9.934;2023-06-14T12:55:43;25.10;55.50
15450;DHT22;7826;49.784;9.934;2023-06-14T12:58:10;25.10;55.60
15450;DHT22;7826;49.784;9.934;2023-06-14T13:00:39;24.70;54.80
15450;DHT22;7826;49.784;9.934;2023-06-14T13:03:05;25.00;56.10
15450;DHT22;7826;49.784;9.934;2023-06-14T13:05:32;24.80;56.10
15450;DHT22;7826;49.784;9.934;2023-06-14T13:08:00;25.10;54.30
15450;DHT22;7826;49.784;9.934;2023-06-14T13:10:27;25.40;53.90
15450;DHT22;7826;49.784;9.934;2023-06-14T13:12:54;25.10;54.00
15450;DHT22;7826;49.784;9.934;2023-06-14T13:15:20;25.10;53.80
15450;DHT22;7826;49.784;9.934;2023-06-14T13:17:47;24.80;54.50
15450;DHT22;7826;49.784;9.934;2023-06-14T13:20:14;24.90;54.80
15450;DHT22;7826;49.784;9.934;2023-06-14T13:22:42;25.10;55.10
15450;DHT22;7826;49.784;9.934;2023-06-14T13:25:09;25.10;53.80
15450;DHT22;7826;49.784;9.934;2023-06-14T13:27:36;25.20;54.10
15450;DHT22;7826;49.784;9.934;2023-06-14T13:30:03;25.30;53.90
15450;DHT22;7826;49.784;9.934;2023-06-14T13:32:31;25.40;53.40
15450;DHT22;7826;49.784;9.934;2023-06-14T13:34:58;25.60;53.30
15450;DHT22;7826;49.784;9.934;2023-06-14T13:37:24;25.60;53.20
15450;DHT22;7826;49.784;9.934;2023-06-14T13:39:51;25.70;52.50
15450;DHT22;7826;49.784;9.934;2023-06-14T13:42:18;25.90;52.30
15450;DHT22;7826;49.784;9.934;2023-06-14T13:44:44;26.00;52.10
15450;DHT22;7826;49.784;9.934;2023-06-14T13:47:11;26.00;51.40
15450;DHT22;7826;49.784;9.934;2023-06-14T13:50:03;25.60;51.30
15450;DHT22;7826;49.784;9.934;2023-06-14T13:52:54;25.60;48.90
15450;DHT22;7826;49.784;9.934;2023-06-14T13:55:45;25.80;49.00
15450;DHT22;7826;49.784;9.934;2023-06-14T13:58:37;25.60;48.60
15450;DHT22;7826;49.784;9.934;2023-06-14T14:01:28;25.50;49.10
15450;DHT22;7826;49.784;9.934;2023-06-14T14:04:19;25.40;48.90
15450;DHT22;7826;49.784;9.934;2023-06-14T14:07:10;25.80;47.50
15450;DHT22;7826;49.784;9.934;2023-06-14T14:10:01;26.10;46.00
15450;DHT22;7826;49.784;9.934;2023-06-14T14:12:52;25.80;45.60
15450;DHT22;7826;49.784;9.934;2023-06-14T14:15:44;25.10;47.40
15450;DHT22;7826;49.784;9.934;2023-06-14T14:18:35;25.50;47.60
15450;DHT22;7826;49.784;9.934;2023-06-14T14:21:26;25.60;47.40
15450;DHT22;7826;49.784;9.934;2023-06-14T14:24:17;25.70;45.70
15450;DHT22;7826;49.784;9.934;2023-06-14T14:30:52;24.90;47.00
15450;DHT22;7826;49.784;9.934;2023-06-14T14:33:45;24.70;48.70
15450;DHT22;7826;49.784;9.934;2023-06-14T14:36:36;24.40;48.40
15450;DHT22;7826;49.784;9.934;2023-06-14T14:39:05;24.20;49.50
15450;DHT22;7826;49.784;9.934;2023-06-14T14:41:31;24.20;48.70
15450;DHT22;7826;49.784;9.934;2023-06-14T14:43:58;24.10;48.80
15450;DHT22;7826;49.784;9.934;2023-06-14T14:46:27;24.00;48.40
15450;DHT22;7826;49.784;9.934;2023-06-14T14:48:59;23.80;48.20
15450;DHT22;7826;49.784;9.934;2023-06-14T14:51:51;24.00;48.60
15450;DHT22;7826;49.784;9.934;2023-06-14T14:54:59;24.00;48.90
15450;DHT22;7826;49.784;9.934;2023-06-14T14:57:27;24.00;49.80
15450;DHT22;7826;49.784;9.934;2023-06-14T14:59:56;24.60;49.90
15450;DHT22;7826;49.784;9.934;2023-06-14T15:06:19;24.50;49.60
15450;DHT22;7826;49.784;9.934;2023-06-14T15:08:46;24.60;50.20
15450;DHT22;7826;49.784;9.934;2023-06-14T15:11:12;24.20;50.50
15450;DHT22;7826;49.784;9.934;2023-06-14T15:13:39;23.90;51.30
15450;DHT22;7826;49.784;9.934;2023-06-14T15:16:05;23.60;52.00
15450;DHT22;7826;49.784;9.934;2023-06-14T15:18:32;23.30;52.60
15450;DHT22;7826;49.784;9.934;2023-06-14T15:20:58;23.10;53.20
15450;DHT22;7826;49.784;9.934;2023-06-14T15:23:25;23.00;54.10
15450;DHT22;7826;49.784;9.934;2023-06-14T15:25:51;22.90;54.00
15450;DHT22;7826;49.784;9.934;2023-06-14T15:28:18;22.70;53.50
15450;DHT22;7826;49.784;9.934;2023-06-14T15:30:45;22.70;54.30
15450;DHT22;7826;49.784;9.934;2023-06-14T15:33:11;22.60;54.20
15450;DHT22;7826;49.784;9.934;2023-06-14T15:35:38;22.50;54.60
15450;DHT22;7826;49.784;9.934;2023-06-14T15:38:04;22.40;54.60
15450;DHT22;7826;49.784;9.934;2023-06-14T15:40:31;22.30;55.10
15450;DHT22;7826;49.784;9.934;2023-06-14T15:42:57;22.30;55.30
15450;DHT22;7826;49.784;9.934;2023-06-14T15:45:24;22.20;55.70
15450;DHT22;7826;49.784;9.934;2023-06-14T15:47:50;22.20;56.20
15450;DHT22;7826;49.784;9.934;2023-06-14T15:50:17;22.20;56.50
15450;DHT22;7826;49.784;9.934;2023-06-14T15:52:43;22.20;56.50
15450;DHT22;7826;49.784;9.934;2023-06-14T15:55:10;22.20;56.70
15450;DHT22;7826;49.784;9.934;2023-06-14T15:57:36;22.10;56.70
15450;DHT22;7826;49.784;9.934;2023-06-14T16:00:03;21.90;56.50
15450;DHT22;7826;49.784;9.934;2023-06-14T16:02:30;22.00;56.40
15450;DHT22;7826;49.784;9.934;2023-06-14T16:04:57;22.10;56.30
15450;DHT22;7826;49.784;9.934;2023-06-14T16:07:23;22.10;56.40
15450;DHT22;7826;49.784;9.934;2023-06-14T16:09:50;22.10;56.10
15450;DHT22;7826;49.784;9.934;2023-06-14T16:12:16;22.10;56.10
15450;DHT22;7826;49.784;9.934;2023-06-14T16:14:43;21.90;55.70
15450;DHT22;7826;49.784;9.934;2023-06-14T16:17:09;22.00;55.90
15450;DHT22;7826;49.784;9.934;2023-06-14T16:19:36;22.00;56.00
15450;DHT22;7826;49.784;9.934;2023-06-14T16:22:03;21.90;56.00
15450;DHT22;7826;49.784;9.934;2023-06-14T16:24:30;21.80;56.30
15450;DHT22;7826;49.784;9.934;2023-06-14T16:26:57;21.80;56.70
15450;DHT22;7826;49.784;9.934;2023-06-14T16:29:23;21.90;56.30
15450;DHT22;7826;49.784;9.934;2023-06-14T16:31:50;21.90;56.10
15450;DHT22;7826;49.784;9.934;2023-06-14T16:34:16;22.00;56.00